createdAt,value
2023-04-18T00:14:03.452Z,7.8
2023-04-18T00:24:05.229Z,7.7
2023-04-18T00:44:09.578Z,7.5
2023-04-18T00:54:12.072Z,7.3
2023-04-18T01:14:16.149Z,7.1
2023-04-18T01:24:18.849Z,7
2023-04-18T02:24:31.337Z,6.9
2023-04-18T02:34:33.533Z,6.7
2023-04-18T02:44:36.023Z,6.7
2023-04-18T02:54:37.762Z,6.6
2023-04-18T03:04:40.167Z,6.7
2023-04-18T03:24:45.139Z,6.8
2023-04-18T03:34:47.591Z,6.8
2023-04-18T03:44:49.786Z,6.9
2023-04-18T03:54:52.445Z,6.9
2023-04-18T04:04:54.270Z,7
2023-04-18T04:14:55.960Z,7
2023-04-18T04:24:58.260Z,7
2023-04-18T04:35:00.198Z,7.1
2023-04-18T04:45:02.495Z,7.1
2023-04-18T04:55:04.672Z,7.1
2023-04-18T05:05:07.354Z,7.1
2023-04-18T05:15:09.779Z,7.1
2023-04-18T05:25:12.446Z,7.2
2023-04-18T05:35:14.195Z,7.2
2023-04-18T05:45:16.476Z,7.4
2023-04-18T05:55:18.396Z,7.5
2023-04-18T06:15:23.194Z,7.3
2023-04-18T06:25:25.337Z,7.3
2023-04-18T06:35:27.184Z,7.3
2023-04-18T06:45:29.388Z,7.3
2023-04-18T06:55:31.526Z,7.5
2023-04-18T07:05:34.028Z,7.6
2023-04-18T07:15:36.013Z,7.7
2023-04-18T07:25:38.120Z,7.7
2023-04-18T07:35:39.797Z,7.8
2023-04-18T07:45:42.412Z,7.8
2023-04-18T07:55:44.876Z,7.9
2023-04-18T08:05:46.572Z,8
2023-04-18T08:15:49.033Z,8.2
2023-04-18T08:25:50.808Z,8.3
2023-04-18T08:35:52.555Z,8.5
2023-04-18T08:45:54.338Z,8.5
2023-04-18T09:05:58.471Z,8.6
2023-04-18T09:15:59.994Z,8.6
2023-04-18T09:26:02.512Z,8.7
2023-04-18T09:36:04.826Z,8.8
2023-04-18T09:46:06.920Z,8.9
2023-04-18T09:56:09.509Z,9.1
2023-04-18T10:06:11.256Z,9.5
2023-04-18T10:26:15.253Z,9.7
2023-04-18T10:46:30.856Z,9.9
2023-04-18T11:06:24.171Z,10.3
2023-04-18T11:16:26.727Z,10.5
2023-04-18T11:26:28.637Z,10.6
2023-04-18T11:36:30.294Z,10.6
2023-04-18T12:06:37.652Z,11.1
2023-04-18T12:16:39.367Z,11.3
2023-04-18T12:26:41.281Z,11.4
2023-04-18T12:36:43.917Z,11.5
2023-04-18T12:46:46.113Z,11.7
2023-04-18T12:56:48.325Z,11.8
2023-04-18T13:06:50.626Z,11.9
2023-04-18T13:16:52.876Z,12.3
2023-04-18T13:26:55.106Z,12.9
2023-04-18T13:36:59.023Z,13.7
2023-04-18T13:47:00.039Z,14.3
2023-04-18T13:57:02.345Z,14.2
2023-04-18T14:07:04.355Z,14.5
2023-04-18T14:17:06.954Z,14.2
2023-04-18T14:27:08.697Z,14
2023-04-18T14:47:12.673Z,13.9
2023-04-18T14:57:14.367Z,14.4
2023-04-18T15:07:16.706Z,13.8
2023-04-18T15:17:18.374Z,13.5
2023-04-18T15:27:20.596Z,13.3
2023-04-18T15:37:22.905Z,14.3
2023-04-18T15:47:25.376Z,14.5
2023-04-18T16:07:29.462Z,14.2
2023-04-18T16:17:31.338Z,14.5
2023-04-18T16:27:33.302Z,14.3
2023-04-18T16:37:35.738Z,14.4
2023-04-18T16:47:38.285Z,13.9
2023-04-18T16:57:40.430Z,13.3
2023-04-18T17:07:42.476Z,13.1
2023-04-18T17:17:45.183Z,13
2023-04-18T17:27:47.104Z,13
2023-04-18T17:37:48.809Z,12.6
2023-04-18T17:47:51.386Z,12.4
2023-04-18T17:57:53.753Z,12.3
2023-04-18T18:07:55.588Z,12.1
2023-04-18T18:17:58.089Z,11.9
2023-04-18T18:28:00.301Z,11.7
2023-04-18T18:38:02.325Z,11.5
2023-04-18T18:48:04.265Z,11.3
2023-04-18T18:58:06.551Z,11.1
2023-04-18T19:08:08.629Z,10.9
2023-04-18T19:18:10.483Z,10.8
2023-04-18T19:28:12.991Z,10.6
2023-04-18T19:38:15.094Z,10.5
2023-04-18T19:48:17.080Z,10.4
2023-04-18T19:58:19.196Z,10.3
2023-04-18T20:08:20.967Z,10.1
2023-04-18T20:28:35.025Z,10
2023-04-18T20:38:37.312Z,10
2023-04-18T20:48:39.616Z,9.9
2023-04-18T20:58:41.884Z,9.8
2023-04-18T21:08:43.765Z,9.8
2023-04-18T21:18:46.140Z,9.7
2023-04-18T21:28:48.105Z,9.7
2023-04-18T21:38:50.027Z,9.9
2023-04-18T21:48:52.713Z,9.9
2023-04-18T21:58:55.214Z,10
2023-04-18T22:08:57.045Z,10
2023-04-18T22:18:59.028Z,10.1
2023-04-18T22:29:01.199Z,10.1
2023-04-18T22:39:03.784Z,10
2023-04-18T22:49:06.294Z,10
2023-04-18T22:59:08.396Z,10.1
2023-04-18T23:19:12.867Z,10.4
2023-04-18T23:29:14.623Z,10.5
2023-04-18T23:39:16.589Z,10.5
2023-04-18T23:49:19.028Z,10.6
2023-04-18T23:59:21.103Z,10.6
